sensor_id;sensor_type;location;lat;lon;timestamp;P1;durP1;ratioP1;P2;durP2;ratioP2
4021;SDS011;2025;48.260;16.432;2022-08-01T00:00:32;3.42;;;3.10;;
4021;SDS011;2025;48.260;16.432;2022-08-01T00:03:03;3.25;;;3.00;;
4021;SDS011;2025;48.260;16.432;2022-08-01T00:05:41;6.53;;;3.30;;
4021;SDS011;2025;48.260;16.432;2022-08-01T00:08:12;3.53;;;3.33;;
4021;SDS011;2025;48.260;16.432;2022-08-01T00:10:39;3.55;;;3.35;;
4021;SDS011;2025;48.260;16.432;2022-08-01T00:13:13;3.63;;;3.33;;
4021;SDS011;2025;48.260;16.432;2022-08-01T00:15:42;3.90;;;3.60;;
4021;SDS011;2025;48.260;16.432;2022-08-01T00:18:16;4.53;;;3.90;;
4021;SDS011;2025;48.260;16.432;2022-08-01T00:20:43;3.75;;;3.58;;
4021;SDS011;2025;48.260;16.432;2022-08-01T00:23:10;3.70;;;3.50;;
4021;SDS011;2025;48.260;16.432;2022-08-01T00:25:37;5.00;;;3.70;;
4021;SDS011;2025;48.260;16.432;2022-08-01T00:28:06;4.05;;;3.80;;
4021;SDS011;2025;48.260;16.432;2022-08-01T00:30:33;4.10;;;3.90;;
4021;SDS011;2025;48.260;16.432;2022-08-01T00:33:01;5.80;;;3.90;;
4021;SDS011;2025;48.260;16.432;2022-08-01T00:35:29;4.88;;;3.92;;
4021;SDS011;2025;48.260;16.432;2022-08-01T00:37:56;3.90;;;3.70;;
4021;SDS011;2025;48.260;16.432;2022-08-01T00:40:31;3.90;;;3.70;;
4021;SDS011;2025;48.260;16.432;2022-08-01T00:43:03;4.13;;;3.83;;
4021;SDS011;2025;48.260;16.432;2022-08-01T00:45:32;4.35;;;3.95;;
4021;SDS011;2025;48.260;16.432;2022-08-01T00:47:58;4.50;;;4.22;;
4021;SDS011;2025;48.260;16.432;2022-08-01T00:50:34;4.20;;;4.00;;
4021;SDS011;2025;48.260;16.432;2022-08-01T00:53:02;4.90;;;4.60;;
4021;SDS011;2025;48.260;16.432;2022-08-01T00:55:31;5.65;;;4.45;;
4021;SDS011;2025;48.260;16.432;2022-08-01T00:58:03;4.63;;;4.22;;
4021;SDS011;2025;48.260;16.432;2022-08-01T01:00:31;4.72;;;4.32;;
4021;SDS011;2025;48.260;16.432;2022-08-01T01:03:04;4.40;;;4.10;;
4021;SDS011;2025;48.260;16.432;2022-08-01T01:05:33;4.65;;;4.35;;
4021;SDS011;2025;48.260;16.432;2022-08-01T01:08:12;4.50;;;4.10;;
4021;SDS011;2025;48.260;16.432;2022-08-01T01:10:52;7.20;;;4.60;;
4021;SDS011;2025;48.260;16.432;2022-08-01T01:13:23;4.28;;;4.07;;
4021;SDS011;2025;48.260;16.432;2022-08-01T01:15:59;4.70;;;4.40;;
4021;SDS011;2025;48.260;16.432;2022-08-01T01:18:30;4.82;;;4.53;;
4021;SDS011;2025;48.260;16.432;2022-08-01T01:21:03;7.22;;;4.45;;
4021;SDS011;2025;48.260;16.432;2022-08-01T01:23:44;4.22;;;4.03;;
4021;SDS011;2025;48.260;16.432;2022-08-01T01:26:28;5.35;;;4.65;;
4021;SDS011;2025;48.260;16.432;2022-08-01T01:29:11;5.72;;;4.45;;
4021;SDS011;2025;48.260;16.432;2022-08-01T01:31:49;4.15;;;3.80;;
4021;SDS011;2025;48.260;16.432;2022-08-01T01:34:25;5.05;;;4.53;;
4021;SDS011;2025;48.260;16.432;2022-08-01T01:36:56;4.67;;;4.37;;
4021;SDS011;2025;48.260;16.432;2022-08-01T01:39:28;4.82;;;4.40;;
4021;SDS011;2025;48.260;16.432;2022-08-01T01:41:57;5.43;;;4.47;;
4021;SDS011;2025;48.260;16.432;2022-08-01T01:44:28;4.53;;;4.13;;
4021;SDS011;2025;48.260;16.432;2022-08-01T01:47:03;4.20;;;3.90;;
4021;SDS011;2025;48.260;16.432;2022-08-01T01:49:32;3.97;;;3.63;;
4021;SDS011;2025;48.260;16.432;2022-08-01T01:52:00;4.20;;;4.00;;
4021;SDS011;2025;48.260;16.432;2022-08-01T01:54:31;4.57;;;4.18;;
4021;SDS011;2025;48.260;16.432;2022-08-01T01:57:02;4.50;;;4.10;;
4021;SDS011;2025;48.260;16.432;2022-08-01T01:59:36;4.55;;;4.20;;
4021;SDS011;2025;48.260;16.432;2022-08-01T02:02:08;4.25;;;3.90;;
4021;SDS011;2025;48.260;16.432;2022-08-01T02:04:37;5.78;;;4.03;;
4021;SDS011;2025;48.260;16.432;2022-08-01T02:07:13;4.95;;;4.65;;
4021;SDS011;2025;48.260;16.432;2022-08-01T02:09:43;4.60;;;4.30;;
4021;SDS011;2025;48.260;16.432;2022-08-01T02:12:12;4.70;;;4.25;;
4021;SDS011;2025;48.260;16.432;2022-08-01T02:14:41;4.55;;;4.18;;
4021;SDS011;2025;48.260;16.432;2022-08-01T02:17:11;4.20;;;4.00;;
4021;SDS011;2025;48.260;16.432;2022-08-01T02:19:41;7.20;;;3.83;;
4021;SDS011;2025;48.260;16.432;2022-08-01T02:22:10;3.90;;;3.65;;
4021;SDS011;2025;48.260;16.432;2022-08-01T02:24:42;4.17;;;3.97;;
4021;SDS011;2025;48.260;16.432;2022-08-01T02:27:16;5.00;;;4.10;;
4021;SDS011;2025;48.260;16.432;2022-08-01T02:29:50;4.50;;;4.10;;
4021;SDS011;2025;48.260;16.432;2022-08-01T02:32:23;4.13;;;3.95;;
4021;SDS011;2025;48.260;16.432;2022-08-01T02:34:53;4.60;;;4.30;;
4021;SDS011;2025;48.260;16.432;2022-08-01T02:37:23;4.18;;;3.83;;
4021;SDS011;2025;48.260;16.432;2022-08-01T02:39:52;4.80;;;4.47;;
4021;SDS011;2025;48.260;16.432;2022-08-01T02:42:20;4.57;;;4.28;;
4021;SDS011;2025;48.260;16.432;2022-08-01T02:44:51;5.20;;;4.80;;
4021;SDS011;2025;48.260;16.432;2022-08-01T02:47:20;4.90;;;4.35;;
4021;SDS011;2025;48.260;16.432;2022-08-01T02:49:50;4.38;;;4.18;;
4021;SDS011;2025;48.260;16.432;2022-08-01T02:52:19;4.82;;;4.47;;
4021;SDS011;2025;48.260;16.432;2022-08-01T02:54:48;4.28;;;4.07;;
4021;SDS011;2025;48.260;16.432;2022-08-01T02:57:17;4.57;;;4.28;;
4021;SDS011;2025;48.260;16.432;2022-08-01T02:59:46;5.30;;;4.45;;
4021;SDS011;2025;48.260;16.432;2022-08-01T03:02:17;4.60;;;4.25;;
4021;SDS011;2025;48.260;16.432;2022-08-01T03:04:45;4.28;;;4.07;;
4021;SDS011;2025;48.260;16.432;2022-08-01T03:07:16;4.55;;;4.25;;
4021;SDS011;2025;48.260;16.432;2022-08-01T03:09:45;4.38;;;4.15;;
4021;SDS011;2025;48.260;16.432;2022-08-01T03:12:14;4.35;;;4.00;;
4021;SDS011;2025;48.260;16.432;2022-08-01T03:14:44;4.32;;;4.13;;
4021;SDS011;2025;48.260;16.432;2022-08-01T03:17:13;5.75;;;4.50;;
4021;SDS011;2025;48.260;16.432;2022-08-01T03:19:44;4.22;;;3.75;;
4021;SDS011;2025;48.260;16.432;2022-08-01T03:22:12;4.45;;;4.15;;
4021;SDS011;2025;48.260;16.432;2022-08-01T03:24:41;3.90;;;3.70;;
4021;SDS011;2025;48.260;16.432;2022-08-01T03:27:10;4.40;;;3.97;;
4021;SDS011;2025;48.260;16.432;2022-08-01T03:29:38;4.60;;;4.20;;
4021;SDS011;2025;48.260;16.432;2022-08-01T03:32:06;4.28;;;3.90;;
4021;SDS011;2025;48.260;16.432;2022-08-01T03:34:36;4.47;;;4.25;;
4021;SDS011;2025;48.260;16.432;2022-08-01T03:37:05;4.20;;;4.00;;
4021;SDS011;2025;48.260;16.432;2022-08-01T03:39:37;4.10;;;3.90;;
4021;SDS011;2025;48.260;16.432;2022-08-01T03:42:09;4.55;;;4.35;;
4021;SDS011;2025;48.260;16.432;2022-08-01T03:44:40;4.03;;;3.80;;
4021;SDS011;2025;48.260;16.432;2022-08-01T03:47:10;5.93;;;3.97;;
4021;SDS011;2025;48.260;16.432;2022-08-01T03:49:40;4.93;;;4.53;;
4021;SDS011;2025;48.260;16.432;2022-08-01T03:52:11;4.22;;;3.90;;
4021;SDS011;2025;48.260;16.432;2022-08-01T03:54:41;4.50;;;4.20;;
4021;SDS011;2025;48.260;16.432;2022-08-01T03:57:14;4.07;;;3.78;;
4021;SDS011;2025;48.260;16.432;2022-08-01T03:59:41;5.20;;;3.67;;
4021;SDS011;2025;48.260;16.432;2022-08-01T04:02:09;4.10;;;3.90;;
4021;SDS011;2025;48.260;16.432;2022-08-01T04:04:40;7.75;;;4.15;;
4021;SDS011;2025;48.260;16.432;2022-08-01T04:07:21;3.50;;;3.30;;
4021;SDS011;2025;48.260;16.432;2022-08-01T04:09:49;3.75;;;3.55;;
4021;SDS011;2025;48.260;16.432;2022-08-01T04:12:16;3.97;;;3.65;;
4021;SDS011;2025;48.260;16.432;2022-08-01T04:14:44;3.50;;;3.20;;
4021;SDS011;2025;48.260;16.432;2022-08-01T04:17:12;3.53;;;3.30;;
4021;SDS011;2025;48.260;16.432;2022-08-01T04:19:40;3.50;;;3.30;;
4021;SDS011;2025;48.260;16.432;2022-08-01T04:22:07;3.35;;;3.15;;
4021;SDS011;2025;48.260;16.432;2022-08-01T04:24:37;4.10;;;3.70;;
4021;SDS011;2025;48.260;16.432;2022-08-01T04:27:07;3.38;;;3.17;;
4021;SDS011;2025;48.260;16.432;2022-08-01T04:29:38;5.68;;;3.67;;
4021;SDS011;2025;48.260;16.432;2022-08-01T04:32:05;4.22;;;3.00;;
4021;SDS011;2025;48.260;16.432;2022-08-01T04:34:36;4.35;;;3.00;;
4021;SDS011;2025;48.260;16.432;2022-08-01T04:37:06;3.05;;;2.85;;
4021;SDS011;2025;48.260;16.432;2022-08-01T04:39:37;4.53;;;2.88;;
4021;SDS011;2025;48.260;16.432;2022-08-01T04:42:07;3.28;;;3.08;;
4021;SDS011;2025;48.260;16.432;2022-08-01T04:44:36;2.72;;;2.53;;
4021;SDS011;2025;48.260;16.432;2022-08-01T04:47:04;3.40;;;3.05;;
4021;SDS011;2025;48.260;16.432;2022-08-01T04:49:33;3.70;;;2.58;;
4021;SDS011;2025;48.260;16.432;2022-08-01T04:52:00;3.03;;;2.85;;
4021;SDS011;2025;48.260;16.432;2022-08-01T04:54:27;2.95;;;2.65;;
4021;SDS011;2025;48.260;16.432;2022-08-01T04:56:59;3.30;;;3.00;;
4021;SDS011;2025;48.260;16.432;2022-08-01T04:59:27;3.67;;;2.97;;
4021;SDS011;2025;48.260;16.432;2022-08-01T05:02:06;2.72;;;2.53;;
4021;SDS011;2025;48.260;16.432;2022-08-01T05:04:34;2.95;;;2.75;;
4021;SDS011;2025;48.260;16.432;2022-08-01T05:07:02;3.50;;;2.95;;
4021;SDS011;2025;48.260;16.432;2022-08-01T05:09:29;4.28;;;2.95;;
4021;SDS011;2025;48.260;16.432;2022-08-01T05:11:57;4.95;;;2.85;;
4021;SDS011;2025;48.260;16.432;2022-08-01T05:14:26;3.30;;;2.70;;
4021;SDS011;2025;48.260;16.432;2022-08-01T05:16:53;7.80;;;2.92;;
4021;SDS011;2025;48.260;16.432;2022-08-01T05:19:21;4.88;;;2.78;;
4021;SDS011;2025;48.260;16.432;2022-08-01T05:21:48;3.40;;;3.20;;
4021;SDS011;2025;48.260;16.432;2022-08-01T05:24:15;2.80;;;2.70;;
4021;SDS011;2025;48.260;16.432;2022-08-01T05:26:42;4.70;;;2.95;;
4021;SDS011;2025;48.260;16.432;2022-08-01T05:29:09;5.93;;;2.90;;
4021;SDS011;2025;48.260;16.432;2022-08-01T05:31:38;2.90;;;2.70;;
4021;SDS011;2025;48.260;16.432;2022-08-01T05:34:04;3.60;;;3.30;;
4021;SDS011;2025;48.260;16.432;2022-08-01T05:36:31;6.32;;;3.17;;
4021;SDS011;2025;48.260;16.432;2022-08-01T05:38:58;3.35;;;2.97;;
4021;SDS011;2025;48.260;16.432;2022-08-01T05:41:25;5.53;;;3.40;;
4021;SDS011;2025;48.260;16.432;2022-08-01T05:43:52;3.50;;;3.13;;
4021;SDS011;2025;48.260;16.432;2022-08-01T05:46:19;3.33;;;3.08;;
4021;SDS011;2025;48.260;16.432;2022-08-01T05:48:48;5.22;;;3.47;;
4021;SDS011;2025;48.260;16.432;2022-08-01T05:51:15;3.60;;;3.30;;
4021;SDS011;2025;48.260;16.432;2022-08-01T05:53:41;3.60;;;3.30;;
4021;SDS011;2025;48.260;16.432;2022-08-01T05:56:09;3.42;;;3.00;;
4021;SDS011;2025;48.260;16.432;2022-08-01T05:58:36;4.80;;;3.35;;
4021;SDS011;2025;48.260;16.432;2022-08-01T06:01:03;4.82;;;3.30;;
4021;SDS011;2025;48.260;16.432;2022-08-01T06:03:30;3.05;;;2.83;;
4021;SDS011;2025;48.260;16.432;2022-08-01T06:06:00;4.40;;;3.15;;
4021;SDS011;2025;48.260;16.432;2022-08-01T06:08:27;4.82;;;2.60;;
4021;SDS011;2025;48.260;16.432;2022-08-01T06:10:54;2.50;;;2.30;;
4021;SDS011;2025;48.260;16.432;2022-08-01T06:13:21;2.00;;;1.90;;
4021;SDS011;2025;48.260;16.432;2022-08-01T06:15:48;4.20;;;2.30;;
4021;SDS011;2025;48.260;16.432;2022-08-01T06:18:15;2.50;;;2.30;;
4021;SDS011;2025;48.260;16.432;2022-08-01T06:20:42;3.45;;;2.22;;
4021;SDS011;2025;48.260;16.432;2022-08-01T06:23:11;5.38;;;2.50;;
4021;SDS011;2025;48.260;16.432;2022-08-01T06:25:38;2.60;;;2.40;;
4021;SDS011;2025;48.260;16.432;2022-08-01T06:28:05;3.25;;;2.28;;
4021;SDS011;2025;48.260;16.432;2022-08-01T06:30:32;2.72;;;2.40;;
4021;SDS011;2025;48.260;16.432;2022-08-01T06:32:59;4.88;;;2.30;;
4021;SDS011;2025;48.260;16.432;2022-08-01T06:35:26;2.78;;;2.58;;
4021;SDS011;2025;48.260;16.432;2022-08-01T06:37:54;3.53;;;2.70;;
4021;SDS011;2025;48.260;16.432;2022-08-01T06:40:23;4.22;;;2.53;;
4021;SDS011;2025;48.260;16.432;2022-08-01T06:42:50;5.47;;;2.22;;
4021;SDS011;2025;48.260;16.432;2022-08-01T06:45:17;2.47;;;2.28;;
4021;SDS011;2025;48.260;16.432;2022-08-01T06:47:47;4.25;;;2.35;;
4021;SDS011;2025;48.260;16.432;2022-08-01T06:50:14;3.22;;;2.50;;
4021;SDS011;2025;48.260;16.432;2022-08-01T06:52:41;5.47;;;2.67;;
4021;SDS011;2025;48.260;16.432;2022-08-01T06:55:09;9.23;;;2.72;;
4021;SDS011;2025;48.260;16.432;2022-08-01T06:57:42;3.92;;;2.50;;
4021;SDS011;2025;48.260;16.432;2022-08-01T07:00:12;2.75;;;2.55;;
4021;SDS011;2025;48.260;16.432;2022-08-01T07:02:41;2.78;;;2.58;;
4021;SDS011;2025;48.260;16.432;2022-08-01T07:05:08;3.20;;;2.53;;
4021;SDS011;2025;48.260;16.432;2022-08-01T07:07:35;4.15;;;2.38;;
4021;SDS011;2025;48.260;16.432;2022-08-01T07:10:02;2.65;;;2.38;;
4021;SDS011;2025;48.260;16.432;2022-08-01T07:12:29;4.82;;;2.53;;
4021;SDS011;2025;48.260;16.432;2022-08-01T07:14:59;3.35;;;2.15;;
4021;SDS011;2025;48.260;16.432;2022-08-01T07:20:14;3.85;;;2.20;;
4021;SDS011;2025;48.260;16.432;2022-08-01T07:22:41;3.95;;;2.20;;
4021;SDS011;2025;48.260;16.432;2022-08-01T07:25:08;5.18;;;2.25;;
4021;SDS011;2025;48.260;16.432;2022-08-01T07:27:36;2.05;;;1.90;;
4021;SDS011;2025;48.260;16.432;2022-08-01T07:30:05;3.67;;;1.95;;
4021;SDS011;2025;48.260;16.432;2022-08-01T07:32:33;3.70;;;2.17;;
4021;SDS011;2025;48.260;16.432;2022-08-01T07:35:00;4.70;;;2.30;;
4021;SDS011;2025;48.260;16.432;2022-08-01T07:37:27;4.03;;;2.10;;
4021;SDS011;2025;48.260;16.432;2022-08-01T07:39:54;7.43;;;2.20;;
4021;SDS011;2025;48.260;16.432;2022-08-01T07:42:21;3.13;;;2.17;;
4021;SDS011;2025;48.260;16.432;2022-08-01T07:44:48;2.47;;;2.03;;
4021;SDS011;2025;48.260;16.432;2022-08-01T07:47:22;2.53;;;2.33;;
4021;SDS011;2025;48.260;16.432;2022-08-01T07:49:49;2.50;;;2.30;;
4021;SDS011;2025;48.260;16.432;2022-08-01T07:52:17;2.03;;;1.92;;
4021;SDS011;2025;48.260;16.432;2022-08-01T07:54:44;2.80;;;2.00;;
4021;SDS011;2025;48.260;16.432;2022-08-01T07:57:11;3.20;;;2.08;;
4021;SDS011;2025;48.260;16.432;2022-08-01T07:59:38;3.10;;;2.17;;
4021;SDS011;2025;48.260;16.432;2022-08-01T08:02:05;3.08;;;2.10;;
4021;SDS011;2025;48.260;16.432;2022-08-01T08:04:33;1.90;;;1.80;;
4021;SDS011;2025;48.260;16.432;2022-08-01T08:07:00;2.42;;;2.05;;
4021;SDS011;2025;48.260;16.432;2022-08-01T08:09:27;4.10;;;2.20;;
4021;SDS011;2025;48.260;16.432;2022-08-01T08:11:54;3.90;;;2.70;;
4021;SDS011;2025;48.260;16.432;2022-08-01T08:14:21;2.65;;;2.00;;
4021;SDS011;2025;48.260;16.432;2022-08-01T08:16:49;4.35;;;2.10;;
4021;SDS011;2025;48.260;16.432;2022-08-01T08:19:16;3.15;;;1.98;;
4021;SDS011;2025;48.260;16.432;2022-08-01T08:21:45;2.50;;;2.30;;
4021;SDS011;2025;48.260;16.432;2022-08-01T08:24:12;4.70;;;2.22;;
4021;SDS011;2025;48.260;16.432;2022-08-01T08:26:49;3.28;;;1.98;;
4021;SDS011;2025;48.260;16.432;2022-08-01T08:29:18;2.10;;;2.00;;
4021;SDS011;2025;48.260;16.432;2022-08-01T08:31:45;2.20;;;2.00;;
4021;SDS011;2025;48.260;16.432;2022-08-01T08:34:12;2.33;;;2.22;;
4021;SDS011;2025;48.260;16.432;2022-08-01T08:36:39;5.75;;;2.28;;
4021;SDS011;2025;48.260;16.432;2022-08-01T08:39:08;7.72;;;2.30;;
4021;SDS011;2025;48.260;16.432;2022-08-01T08:41:35;3.28;;;2.05;;
4021;SDS011;2025;48.260;16.432;2022-08-01T08:44:03;2.67;;;2.10;;
4021;SDS011;2025;48.260;16.432;2022-08-01T08:46:31;6.40;;;2.40;;
4021;SDS011;2025;48.260;16.432;2022-08-01T08:48:59;2.75;;;2.00;;
4021;SDS011;2025;48.260;16.432;2022-08-01T08:51:29;3.72;;;2.30;;
4021;SDS011;2025;48.260;16.432;2022-08-01T08:53:58;7.60;;;2.80;;
4021;SDS011;2025;48.260;16.432;2022-08-01T08:56:30;4.78;;;2.10;;
4021;SDS011;2025;48.260;16.432;2022-08-01T08:59:00;5.28;;;2.55;;
4021;SDS011;2025;48.260;16.432;2022-08-01T09:01:28;2.00;;;1.90;;
4021;SDS011;2025;48.260;16.432;2022-08-01T09:03:57;4.82;;;2.20;;
4021;SDS011;2025;48.260;16.432;2022-08-01T09:06:24;6.18;;;1.83;;
4021;SDS011;2025;48.260;16.432;2022-08-01T09:08:51;2.13;;;1.92;;
4021;SDS011;2025;48.260;16.432;2022-08-01T09:11:19;1.83;;;1.70;;
4021;SDS011;2025;48.260;16.432;2022-08-01T09:16:42;4.80;;;2.00;;
4021;SDS011;2025;48.260;16.432;2022-08-01T09:19:11;3.88;;;1.60;;
4021;SDS011;2025;48.260;16.432;2022-08-01T09:21:39;2.80;;;1.70;;
4021;SDS011;2025;48.260;16.432;2022-08-01T09:24:21;7.68;;;1.98;;
4021;SDS011;2025;48.260;16.432;2022-08-01T09:26:48;2.53;;;2.08;;
4021;SDS011;2025;48.260;16.432;2022-08-01T09:29:19;2.10;;;1.70;;
4021;SDS011;2025;48.260;16.432;2022-08-01T09:31:51;4.35;;;1.60;;
4021;SDS011;2025;48.260;16.432;2022-08-01T09:34:23;2.58;;;1.52;;
4021;SDS011;2025;48.260;16.432;2022-08-01T09:36:51;3.15;;;1.50;;
4021;SDS011;2025;48.260;16.432;2022-08-01T09:39:22;3.53;;;1.58;;
4021;SDS011;2025;48.260;16.432;2022-08-01T09:41:50;4.05;;;1.67;;
4021;SDS011;2025;48.260;16.432;2022-08-01T09:44:18;2.33;;;1.60;;
4021;SDS011;2025;48.260;16.432;2022-08-01T09:46:51;2.25;;;1.65;;
4021;SDS011;2025;48.260;16.432;2022-08-01T09:49:29;2.25;;;1.80;;
4021;SDS011;2025;48.260;16.432;2022-08-01T09:51:57;1.73;;;1.63;;
4021;SDS011;2025;48.260;16.432;2022-08-01T09:54:29;3.20;;;1.73;;
4021;SDS011;2025;48.260;16.432;2022-08-01T09:57:08;2.97;;;1.80;;
4021;SDS011;2025;48.260;16.432;2022-08-01T09:59:36;2.65;;;1.75;;
4021;SDS011;2025;48.260;16.432;2022-08-01T10:02:08;3.93;;;1.70;;
4021;SDS011;2025;48.260;16.432;2022-08-01T10:04:45;3.72;;;1.65;;
4021;SDS011;2025;48.260;16.432;2022-08-01T10:07:14;1.77;;;1.67;;
4021;SDS011;2025;48.260;16.432;2022-08-01T10:09:42;3.55;;;1.67;;
4021;SDS011;2025;48.260;16.432;2022-08-01T10:12:11;3.97;;;1.90;;
4021;SDS011;2025;48.260;16.432;2022-08-01T10:14:40;1.90;;;1.80;;
4021;SDS011;2025;48.260;16.432;2022-08-01T10:17:09;4.28;;;1.80;;
4021;SDS011;2025;48.260;16.432;2022-08-01T10:19:40;2.35;;;1.73;;
4021;SDS011;2025;48.260;16.432;2022-08-01T10:22:09;5.63;;;2.10;;
4021;SDS011;2025;48.260;16.432;2022-08-01T10:24:39;3.03;;;1.95;;
4021;SDS011;2025;48.260;16.432;2022-08-01T10:27:07;2.00;;;1.90;;
4021;SDS011;2025;48.260;16.432;2022-08-01T10:29:35;5.97;;;2.00;;
4021;SDS011;2025;48.260;16.432;2022-08-01T10:32:04;1.90;;;1.80;;
4021;SDS011;2025;48.260;16.432;2022-08-01T10:34:35;2.15;;;2.05;;
4021;SDS011;2025;48.260;16.432;2022-08-01T10:37:03;4.47;;;1.73;;
4021;SDS011;2025;48.260;16.432;2022-08-01T10:39:31;2.92;;;2.03;;
4021;SDS011;2025;48.260;16.432;2022-08-01T10:41:58;1.70;;;1.60;;
4021;SDS011;2025;48.260;16.432;2022-08-01T10:44:27;2.20;;;1.98;;
4021;SDS011;2025;48.260;16.432;2022-08-01T10:46:56;5.47;;;1.83;;
4021;SDS011;2025;48.260;16.432;2022-08-01T10:49:29;1.95;;;1.77;;
4021;SDS011;2025;48.260;16.432;2022-08-01T10:52:02;4.82;;;1.70;;
4021;SDS011;2025;48.260;16.432;2022-08-01T10:54:29;4.72;;;1.65;;
4021;SDS011;2025;48.260;16.432;2022-08-01T10:57:05;3.03;;;1.50;;
4021;SDS011;2025;48.260;16.432;2022-08-01T10:59:33;3.15;;;1.80;;
4021;SDS011;2025;48.260;16.432;2022-08-01T11:02:05;1.70;;;1.60;;
4021;SDS011;2025;48.260;16.432;2022-08-01T11:04:33;1.55;;;1.45;;
4021;SDS011;2025;48.260;16.432;2022-08-01T11:07:11;3.10;;;1.42;;
4021;SDS011;2025;48.260;16.432;2022-08-01T11:09:43;3.40;;;1.67;;
4021;SDS011;2025;48.260;16.432;2022-08-01T11:12:12;1.75;;;1.65;;
4021;SDS011;2025;48.260;16.432;2022-08-01T11:17:49;2.88;;;1.55;;
4021;SDS011;2025;48.260;16.432;2022-08-01T11:20:17;6.10;;;1.55;;
4021;SDS011;2025;48.260;16.432;2022-08-01T11:31:39;1.70;;;1.60;;
4021;SDS011;2025;48.260;16.432;2022-08-01T11:34:06;1.95;;;1.67;;
4021;SDS011;2025;48.260;16.432;2022-08-01T11:36:33;2.83;;;1.60;;
4021;SDS011;2025;48.260;16.432;2022-08-01T11:41:47;2.45;;;1.80;;
4021;SDS011;2025;48.260;16.432;2022-08-01T11:44:18;2.20;;;1.58;;
4021;SDS011;2025;48.260;16.432;2022-08-01T11:46:54;1.85;;;1.65;;
4021;SDS011;2025;48.260;16.432;2022-08-01T11:49:42;3.83;;;1.75;;
4021;SDS011;2025;48.260;16.432;2022-08-01T11:52:13;2.13;;;1.70;;
4021;SDS011;2025;48.260;16.432;2022-08-01T11:54:43;1.50;;;1.40;;
4021;SDS011;2025;48.260;16.432;2022-08-01T11:57:12;4.90;;;1.88;;
4021;SDS011;2025;48.260;16.432;2022-08-01T11:59:42;2.85;;;1.80;;
4021;SDS011;2025;48.260;16.432;2022-08-01T12:02:16;2.10;;;1.90;;
4021;SDS011;2025;48.260;16.432;2022-08-01T12:04:46;2.58;;;1.80;;
4021;SDS011;2025;48.260;16.432;2022-08-01T12:07:15;2.00;;;1.90;;
4021;SDS011;2025;48.260;16.432;2022-08-01T12:09:44;1.55;;;1.50;;
4021;SDS011;2025;48.260;16.432;2022-08-01T12:12:12;1.70;;;1.60;;
4021;SDS011;2025;48.260;16.432;2022-08-01T12:17:29;2.92;;;1.80;;
4021;SDS011;2025;48.260;16.432;2022-08-01T12:20:00;7.70;;;1.85;;
4021;SDS011;2025;48.260;16.432;2022-08-01T12:22:27;2.42;;;1.90;;
4021;SDS011;2025;48.260;16.432;2022-08-01T12:24:55;3.47;;;1.73;;
4021;SDS011;2025;48.260;16.432;2022-08-01T12:27:31;3.70;;;2.00;;
4021;SDS011;2025;48.260;16.432;2022-08-01T12:29:58;4.45;;;2.03;;
4021;SDS011;2025;48.260;16.432;2022-08-01T12:32:27;3.15;;;2.13;;
4021;SDS011;2025;48.260;16.432;2022-08-01T12:34:56;2.45;;;2.25;;
4021;SDS011;2025;48.260;16.432;2022-08-01T12:37:27;3.47;;;2.00;;
4021;SDS011;2025;48.260;16.432;2022-08-01T12:39:56;3.83;;;1.90;;
4021;SDS011;2025;48.260;16.432;2022-08-01T12:42:24;9.63;;;2.00;;
4021;SDS011;2025;48.260;16.432;2022-08-01T12:44:51;1.83;;;1.73;;
4021;SDS011;2025;48.260;16.432;2022-08-01T12:47:18;1.50;;;1.40;;
4021;SDS011;2025;48.260;16.432;2022-08-01T12:49:47;2.08;;;1.60;;
4021;SDS011;2025;48.260;16.432;2022-08-01T12:52:15;1.52;;;1.48;;
4021;SDS011;2025;48.260;16.432;2022-08-01T12:55:01;1.63;;;1.27;;
4021;SDS011;2025;48.260;16.432;2022-08-01T12:57:29;1.65;;;1.20;;
4021;SDS011;2025;48.260;16.432;2022-08-01T13:00:10;1.40;;;1.40;;
4021;SDS011;2025;48.260;16.432;2022-08-01T13:02:42;1.33;;;1.23;;
4021;SDS011;2025;48.260;16.432;2022-08-01T13:05:13;2.47;;;1.30;;
4021;SDS011;2025;48.260;16.432;2022-08-01T13:07:42;1.88;;;1.20;;
4021;SDS011;2025;48.260;16.432;2022-08-01T13:10:23;2.88;;;1.38;;
4021;SDS011;2025;48.260;16.432;2022-08-01T13:12:53;1.27;;;1.20;;
4021;SDS011;2025;48.260;16.432;2022-08-01T13:15:26;1.27;;;1.25;;
4021;SDS011;2025;48.260;16.432;2022-08-01T13:17:56;1.58;;;1.20;;
4021;SDS011;2025;48.260;16.432;2022-08-01T13:20:29;1.40;;;1.30;;
4021;SDS011;2025;48.260;16.432;2022-08-01T13:23:12;1.50;;;1.40;;
4021;SDS011;2025;48.260;16.432;2022-08-01T13:25:48;1.42;;;1.33;;
4021;SDS011;2025;48.260;16.432;2022-08-01T13:28:17;1.95;;;1.50;;
4021;SDS011;2025;48.260;16.432;2022-08-01T13:30:55;2.80;;;1.50;;
4021;SDS011;2025;48.260;16.432;2022-08-01T13:33:25;5.35;;;1.52;;
4021;SDS011;2025;48.260;16.432;2022-08-01T13:35:55;1.65;;;1.58;;
4021;SDS011;2025;48.260;16.432;2022-08-01T13:38:24;5.95;;;1.40;;
4021;SDS011;2025;48.260;16.432;2022-08-01T13:41:09;3.83;;;1.80;;
4021;SDS011;2025;48.260;16.432;2022-08-01T13:43:37;2.17;;;1.75;;
4021;SDS011;2025;48.260;16.432;2022-08-01T13:46:08;1.80;;;1.70;;
4021;SDS011;2025;48.260;16.432;2022-08-01T13:48:38;1.50;;;1.40;;
4021;SDS011;2025;48.260;16.432;2022-08-01T13:51:05;1.60;;;1.50;;
4021;SDS011;2025;48.260;16.432;2022-08-01T13:53:35;2.30;;;1.60;;
4021;SDS011;2025;48.260;16.432;2022-08-01T13:56:03;2.13;;;1.45;;
4021;SDS011;2025;48.260;16.432;2022-08-01T13:58:35;3.22;;;1.70;;
4021;SDS011;2025;48.260;16.432;2022-08-01T14:01:02;2.55;;;1.60;;
4021;SDS011;2025;48.260;16.432;2022-08-01T14:03:29;1.90;;;1.40;;
4021;SDS011;2025;48.260;16.432;2022-08-01T14:06:05;1.50;;;1.33;;
4021;SDS011;2025;48.260;16.432;2022-08-01T14:08:39;2.47;;;1.42;;
4021;SDS011;2025;48.260;16.432;2022-08-01T14:11:13;2.67;;;1.17;;
4021;SDS011;2025;48.260;16.432;2022-08-01T14:13:40;1.55;;;1.20;;
4021;SDS011;2025;48.260;16.432;2022-08-01T14:16:07;3.85;;;1.55;;
4021;SDS011;2025;48.260;16.432;2022-08-01T14:18:38;4.22;;;1.10;;
4021;SDS011;2025;48.260;16.432;2022-08-01T14:21:08;1.48;;;1.30;;
4021;SDS011;2025;48.260;16.432;2022-08-01T14:23:43;1.67;;;1.33;;
4021;SDS011;2025;48.260;16.432;2022-08-01T14:26:10;1.38;;;1.17;;
4021;SDS011;2025;48.260;16.432;2022-08-01T14:28:38;2.15;;;0.90;;
4021;SDS011;2025;48.260;16.432;2022-08-01T14:31:11;2.05;;;1.25;;
4021;SDS011;2025;48.260;16.432;2022-08-01T14:33:51;7.78;;;1.55;;
4021;SDS011;2025;48.260;16.432;2022-08-01T14:36:18;5.88;;;1.20;;
4021;SDS011;2025;48.260;16.432;2022-08-01T14:38:54;1.33;;;1.23;;
4021;SDS011;2025;48.260;16.432;2022-08-01T14:41:27;1.40;;;1.00;;
4021;SDS011;2025;48.260;16.432;2022-08-01T14:44:02;1.58;;;1.00;;
4021;SDS011;2025;48.260;16.432;2022-08-01T14:46:32;2.90;;;1.02;;
4021;SDS011;2025;48.260;16.432;2022-08-01T14:49:21;1.00;;;1.00;;
4021;SDS011;2025;48.260;16.432;2022-08-01T14:52:02;1.05;;;1.02;;
4021;SDS011;2025;48.260;16.432;2022-08-01T14:54:29;1.10;;;1.00;;
4021;SDS011;2025;48.260;16.432;2022-08-01T14:56:57;7.75;;;1.20;;
4021;SDS011;2025;48.260;16.432;2022-08-01T14:59:31;2.63;;;1.10;;
4021;SDS011;2025;48.260;16.432;2022-08-01T15:01:58;5.30;;;1.48;;
4021;SDS011;2025;48.260;16.432;2022-08-01T15:04:25;9.57;;;1.77;;
4021;SDS011;2025;48.260;16.432;2022-08-01T15:06:53;3.33;;;1.27;;
4021;SDS011;2025;48.260;16.432;2022-08-01T15:09:20;1.35;;;1.25;;
4021;SDS011;2025;48.260;16.432;2022-08-01T15:11:48;2.03;;;1.25;;
4021;SDS011;2025;48.260;16.432;2022-08-01T15:14:15;1.33;;;1.10;;
4021;SDS011;2025;48.260;16.432;2022-08-01T15:17:01;1.33;;;1.23;;
4021;SDS011;2025;48.260;16.432;2022-08-01T15:19:28;4.65;;;1.45;;
4021;SDS011;2025;48.260;16.432;2022-08-01T15:21:55;3.60;;;1.25;;
4021;SDS011;2025;48.260;16.432;2022-08-01T15:24:25;1.38;;;1.27;;
4021;SDS011;2025;48.260;16.432;2022-08-01T15:26:54;1.38;;;1.30;;
4021;SDS011;2025;48.260;16.432;2022-08-01T15:29:22;1.60;;;1.10;;
4021;SDS011;2025;48.260;16.432;2022-08-01T15:31:49;1.52;;;1.10;;
4021;SDS011;2025;48.260;16.432;2022-08-01T15:34:20;1.30;;;1.20;;
4021;SDS011;2025;48.260;16.432;2022-08-01T15:36:47;2.83;;;1.10;;
4021;SDS011;2025;48.260;16.432;2022-08-01T15:39:14;2.30;;;1.20;;